sensor_id;sensor_type;location;lat;lon;timestamp;P1;durP1;ratioP1;P2;durP2;ratioP2
63259;SDS011;49390;51.380;0.098;2022-08-16T00:00:27;10.80;;;8.00;;
63259;SDS011;49390;51.380;0.098;2022-08-16T00:03:08;10.43;;;8.13;;
63259;SDS011;49390;51.380;0.098;2022-08-16T00:05:41;12.20;;;8.63;;
63259;SDS011;49390;51.380;0.098;2022-08-16T00:08:15;11.27;;;8.45;;
63259;SDS011;49390;51.380;0.098;2022-08-16T00:11:08;10.73;;;8.43;;
63259;SDS011;49390;51.380;0.098;2022-08-16T00:13:43;11.23;;;8.70;;
63259;SDS011;49390;51.380;0.098;2022-08-16T00:16:22;10.98;;;8.55;;
63259;SDS011;49390;51.380;0.098;2022-08-16T00:19:14;11.35;;;8.27;;
63259;SDS011;49390;51.380;0.098;2022-08-16T00:21:46;10.00;;;8.52;;
63259;SDS011;49390;51.380;0.098;2022-08-16T00:24:21;10.82;;;8.30;;
63259;SDS011;49390;51.380;0.098;2022-08-16T00:26:59;13.30;;;8.18;;
63259;SDS011;49390;51.380;0.098;2022-08-16T00:29:30;11.10;;;9.20;;
63259;SDS011;49390;51.380;0.098;2022-08-16T00:31:59;13.63;;;8.45;;
63259;SDS011;49390;51.380;0.098;2022-08-16T00:34:33;11.82;;;8.48;;
63259;SDS011;49390;51.380;0.098;2022-08-16T00:37:21;13.65;;;8.70;;
63259;SDS011;49390;51.380;0.098;2022-08-16T00:40:16;11.82;;;8.30;;
63259;SDS011;49390;51.380;0.098;2022-08-16T00:43:02;11.30;;;8.60;;
63259;SDS011;49390;51.380;0.098;2022-08-16T00:49:05;9.93;;;8.40;;
63259;SDS011;49390;51.380;0.098;2022-08-16T00:51:46;12.13;;;8.95;;
63259;SDS011;49390;51.380;0.098;2022-08-16T00:54:23;12.35;;;9.27;;
63259;SDS011;49390;51.380;0.098;2022-08-16T00:56:54;11.00;;;9.27;;
63259;SDS011;49390;51.380;0.098;2022-08-16T00:59:27;11.65;;;9.50;;
63259;SDS011;49390;51.380;0.098;2022-08-16T01:02:16;11.02;;;9.05;;
63259;SDS011;49390;51.380;0.098;2022-08-16T01:04:59;12.85;;;9.15;;
63259;SDS011;49390;51.380;0.098;2022-08-16T01:07:37;11.93;;;9.30;;
63259;SDS011;49390;51.380;0.098;2022-08-16T01:10:23;12.95;;;9.48;;
63259;SDS011;49390;51.380;0.098;2022-08-16T01:13:02;11.88;;;9.73;;
63259;SDS011;49390;51.380;0.098;2022-08-16T01:15:49;13.30;;;9.50;;
63259;SDS011;49390;51.380;0.098;2022-08-16T01:18:24;13.57;;;10.13;;
63259;SDS011;49390;51.380;0.098;2022-08-16T01:27:02;12.60;;;10.23;;
63259;SDS011;49390;51.380;0.098;2022-08-16T01:29:41;13.20;;;10.18;;
63259;SDS011;49390;51.380;0.098;2022-08-16T01:32:27;12.50;;;9.85;;
63259;SDS011;49390;51.380;0.098;2022-08-16T01:35:03;13.48;;;10.43;;
63259;SDS011;49390;51.380;0.098;2022-08-16T01:40:09;12.60;;;10.68;;
63259;SDS011;49390;51.380;0.098;2022-08-16T01:42:38;13.35;;;10.65;;
63259;SDS011;49390;51.380;0.098;2022-08-16T01:45:09;13.43;;;10.88;;
63259;SDS011;49390;51.380;0.098;2022-08-16T01:47:37;14.68;;;11.02;;
63259;SDS011;49390;51.380;0.098;2022-08-16T01:50:16;16.25;;;11.18;;
63259;SDS011;49390;51.380;0.098;2022-08-16T01:53:07;15.35;;;10.93;;
63259;SDS011;49390;51.380;0.098;2022-08-16T01:55:58;16.58;;;11.80;;
63259;SDS011;49390;51.380;0.098;2022-08-16T01:58:29;15.20;;;12.30;;
63259;SDS011;49390;51.380;0.098;2022-08-16T02:00:57;17.85;;;12.65;;
63259;SDS011;49390;51.380;0.098;2022-08-16T02:03:28;17.55;;;13.20;;
63259;SDS011;49390;51.380;0.098;2022-08-16T02:05:56;16.90;;;12.57;;
63259;SDS011;49390;51.380;0.098;2022-08-16T02:08:27;18.20;;;13.05;;
63259;SDS011;49390;51.380;0.098;2022-08-16T02:11:03;18.25;;;12.43;;
63259;SDS011;49390;51.380;0.098;2022-08-16T02:13:34;16.20;;;12.35;;
63259;SDS011;49390;51.380;0.098;2022-08-16T02:16:09;17.80;;;13.43;;
63259;SDS011;49390;51.380;0.098;2022-08-16T02:18:46;18.50;;;13.02;;
63259;SDS011;49390;51.380;0.098;2022-08-16T02:21:15;17.60;;;13.15;;
63259;SDS011;49390;51.380;0.098;2022-08-16T02:23:59;19.75;;;13.65;;
63259;SDS011;49390;51.380;0.098;2022-08-16T02:26:28;17.65;;;13.75;;
63259;SDS011;49390;51.380;0.098;2022-08-16T02:29:00;18.27;;;13.43;;
63259;SDS011;49390;51.380;0.098;2022-08-16T02:31:29;19.77;;;12.95;;
63259;SDS011;49390;51.380;0.098;2022-08-16T02:34:18;20.05;;;13.88;;
63259;SDS011;49390;51.380;0.098;2022-08-16T02:36:59;20.45;;;13.07;;
63259;SDS011;49390;51.380;0.098;2022-08-16T02:39:28;17.85;;;13.27;;
63259;SDS011;49390;51.380;0.098;2022-08-16T02:41:56;18.02;;;13.30;;
63259;SDS011;49390;51.380;0.098;2022-08-16T02:44:25;19.58;;;13.02;;
63259;SDS011;49390;51.380;0.098;2022-08-16T02:49:27;16.52;;;12.80;;
63259;SDS011;49390;51.380;0.098;2022-08-16T02:52:16;15.55;;;12.60;;
63259;SDS011;49390;51.380;0.098;2022-08-16T02:54:59;18.10;;;12.65;;
63259;SDS011;49390;51.380;0.098;2022-08-16T02:57:27;18.67;;;13.30;;
63259;SDS011;49390;51.380;0.098;2022-08-16T02:59:57;18.27;;;12.98;;
63259;SDS011;49390;51.380;0.098;2022-08-16T03:02:30;18.73;;;13.18;;
63259;SDS011;49390;51.380;0.098;2022-08-16T03:05:04;16.85;;;13.00;;
63259;SDS011;49390;51.380;0.098;2022-08-16T03:07:36;18.90;;;13.45;;
63259;SDS011;49390;51.380;0.098;2022-08-16T03:10:06;15.98;;;13.18;;
63259;SDS011;49390;51.380;0.098;2022-08-16T03:12:40;16.65;;;12.40;;
63259;SDS011;49390;51.380;0.098;2022-08-16T03:15:27;20.88;;;12.85;;
63259;SDS011;49390;51.380;0.098;2022-08-16T03:17:55;16.42;;;12.85;;
63259;SDS011;49390;51.380;0.098;2022-08-16T03:20:27;18.08;;;14.00;;
63259;SDS011;49390;51.380;0.098;2022-08-16T03:23:00;17.60;;;13.05;;
63259;SDS011;49390;51.380;0.098;2022-08-16T03:25:30;17.23;;;12.85;;
63259;SDS011;49390;51.380;0.098;2022-08-16T03:28:11;18.23;;;13.10;;
63259;SDS011;49390;51.380;0.098;2022-08-16T03:30:44;20.27;;;12.38;;
63259;SDS011;49390;51.380;0.098;2022-08-16T03:33:14;16.17;;;12.77;;
63259;SDS011;49390;51.380;0.098;2022-08-16T03:35:51;18.48;;;13.40;;
63259;SDS011;49390;51.380;0.098;2022-08-16T03:38:28;18.17;;;12.60;;
63259;SDS011;49390;51.380;0.098;2022-08-16T03:41:14;17.35;;;13.27;;
63259;SDS011;49390;51.380;0.098;2022-08-16T03:43:59;17.80;;;13.50;;
63259;SDS011;49390;51.380;0.098;2022-08-16T03:46:29;19.67;;;13.65;;
63259;SDS011;49390;51.380;0.098;2022-08-16T03:49:20;19.10;;;13.32;;
63259;SDS011;49390;51.380;0.098;2022-08-16T03:51:51;20.77;;;13.48;;
63259;SDS011;49390;51.380;0.098;2022-08-16T03:54:28;16.90;;;12.52;;
63259;SDS011;49390;51.380;0.098;2022-08-16T03:56:57;18.52;;;13.45;;
63259;SDS011;49390;51.380;0.098;2022-08-16T03:59:30;19.23;;;13.13;;
63259;SDS011;49390;51.380;0.098;2022-08-16T04:02:04;16.15;;;13.23;;
63259;SDS011;49390;51.380;0.098;2022-08-16T04:04:49;21.05;;;13.85;;
63259;SDS011;49390;51.380;0.098;2022-08-16T04:07:23;16.83;;;13.15;;
63259;SDS011;49390;51.380;0.098;2022-08-16T04:09:52;17.70;;;13.10;;
63259;SDS011;49390;51.380;0.098;2022-08-16T04:12:20;17.67;;;13.32;;
63259;SDS011;49390;51.380;0.098;2022-08-16T04:15:09;17.52;;;13.45;;
63259;SDS011;49390;51.380;0.098;2022-08-16T04:18:04;16.88;;;13.07;;
63259;SDS011;49390;51.380;0.098;2022-08-16T04:20:33;20.27;;;13.60;;
63259;SDS011;49390;51.380;0.098;2022-08-16T04:23:05;17.05;;;12.55;;
63259;SDS011;49390;51.380;0.098;2022-08-16T04:25:38;17.80;;;12.02;;
63259;SDS011;49390;51.380;0.098;2022-08-16T04:28:09;17.33;;;13.50;;
63259;SDS011;49390;51.380;0.098;2022-08-16T04:31:00;15.50;;;12.35;;
63259;SDS011;49390;51.380;0.098;2022-08-16T04:33:35;17.98;;;12.63;;
63259;SDS011;49390;51.380;0.098;2022-08-16T04:36:03;20.38;;;14.38;;
63259;SDS011;49390;51.380;0.098;2022-08-16T04:38:32;19.05;;;13.80;;
63259;SDS011;49390;51.380;0.098;2022-08-16T04:41:01;18.85;;;13.60;;
63259;SDS011;49390;51.380;0.098;2022-08-16T04:43:31;18.55;;;14.27;;
63259;SDS011;49390;51.380;0.098;2022-08-16T04:46:10;20.88;;;14.45;;
63259;SDS011;49390;51.380;0.098;2022-08-16T04:49:02;19.92;;;14.75;;
63259;SDS011;49390;51.380;0.098;2022-08-16T04:51:31;20.23;;;14.93;;
63259;SDS011;49390;51.380;0.098;2022-08-16T04:56:33;20.10;;;14.50;;
63259;SDS011;49390;51.380;0.098;2022-08-16T04:59:12;21.33;;;14.80;;
63259;SDS011;49390;51.380;0.098;2022-08-16T05:01:43;19.75;;;15.18;;
63259;SDS011;49390;51.380;0.098;2022-08-16T05:04:25;20.75;;;15.32;;
63259;SDS011;49390;51.380;0.098;2022-08-16T05:06:59;20.25;;;15.27;;
63259;SDS011;49390;51.380;0.098;2022-08-16T05:09:56;22.90;;;15.70;;
63259;SDS011;49390;51.380;0.098;2022-08-16T05:12:24;22.15;;;14.88;;
63259;SDS011;49390;51.380;0.098;2022-08-16T05:14:59;22.38;;;15.75;;
63259;SDS011;49390;51.380;0.098;2022-08-16T05:17:29;21.88;;;15.85;;
63259;SDS011;49390;51.380;0.098;2022-08-16T05:19:59;23.20;;;15.40;;
63259;SDS011;49390;51.380;0.098;2022-08-16T05:22:48;22.55;;;15.43;;
63259;SDS011;49390;51.380;0.098;2022-08-16T05:25:20;19.75;;;15.35;;
63259;SDS011;49390;51.380;0.098;2022-08-16T05:27:52;20.80;;;15.30;;
63259;SDS011;49390;51.380;0.098;2022-08-16T05:30:23;22.05;;;15.55;;
63259;SDS011;49390;51.380;0.098;2022-08-16T05:33:07;22.58;;;14.82;;
63259;SDS011;49390;51.380;0.098;2022-08-16T05:35:47;18.80;;;14.60;;
63259;SDS011;49390;51.380;0.098;2022-08-16T05:38:41;20.30;;;15.02;;
63259;SDS011;49390;51.380;0.098;2022-08-16T05:41:13;20.98;;;14.55;;
63259;SDS011;49390;51.380;0.098;2022-08-16T05:43:44;21.60;;;14.07;;
63259;SDS011;49390;51.380;0.098;2022-08-16T05:46:37;20.08;;;14.48;;
63259;SDS011;49390;51.380;0.098;2022-08-16T05:49:16;20.90;;;14.60;;
63259;SDS011;49390;51.380;0.098;2022-08-16T05:51:53;21.92;;;14.93;;
63259;SDS011;49390;51.380;0.098;2022-08-16T05:54:23;19.48;;;14.35;;
63259;SDS011;49390;51.380;0.098;2022-08-16T05:56:57;22.63;;;15.80;;
63259;SDS011;49390;51.380;0.098;2022-08-16T05:59:27;23.67;;;15.65;;
63259;SDS011;49390;51.380;0.098;2022-08-16T06:01:56;23.55;;;14.85;;
63259;SDS011;49390;51.380;0.098;2022-08-16T06:04:31;24.48;;;15.25;;
63259;SDS011;49390;51.380;0.098;2022-08-16T06:07:02;24.03;;;16.00;;
63259;SDS011;49390;51.380;0.098;2022-08-16T06:09:40;22.20;;;15.73;;
63259;SDS011;49390;51.380;0.098;2022-08-16T06:12:13;27.33;;;16.05;;
63259;SDS011;49390;51.380;0.098;2022-08-16T06:15:01;21.50;;;15.20;;
63259;SDS011;49390;51.380;0.098;2022-08-16T06:17:37;22.10;;;15.32;;
63259;SDS011;49390;51.380;0.098;2022-08-16T06:20:22;25.70;;;16.88;;
63259;SDS011;49390;51.380;0.098;2022-08-16T06:23:05;24.60;;;15.70;;
63259;SDS011;49390;51.380;0.098;2022-08-16T06:25:51;21.30;;;15.43;;
63259;SDS011;49390;51.380;0.098;2022-08-16T06:28:23;22.55;;;15.32;;
63259;SDS011;49390;51.380;0.098;2022-08-16T06:31:06;23.98;;;15.93;;
63259;SDS011;49390;51.380;0.098;2022-08-16T06:33:41;23.90;;;16.13;;
63259;SDS011;49390;51.380;0.098;2022-08-16T06:36:14;24.23;;;16.10;;
63259;SDS011;49390;51.380;0.098;2022-08-16T06:38:59;23.10;;;16.50;;
63259;SDS011;49390;51.380;0.098;2022-08-16T06:41:52;22.27;;;15.63;;
63259;SDS011;49390;51.380;0.098;2022-08-16T06:44:40;23.00;;;16.05;;
63259;SDS011;49390;51.380;0.098;2022-08-16T06:47:23;25.60;;;16.33;;
63259;SDS011;49390;51.380;0.098;2022-08-16T06:50:11;23.95;;;16.63;;
63259;SDS011;49390;51.380;0.098;2022-08-16T06:52:49;25.63;;;17.73;;
63259;SDS011;49390;51.380;0.098;2022-08-16T06:55:50;26.45;;;16.85;;
63259;SDS011;49390;51.380;0.098;2022-08-16T06:58:23;24.90;;;16.65;;
63259;SDS011;49390;51.380;0.098;2022-08-16T07:01:07;22.40;;;15.43;;
63259;SDS011;49390;51.380;0.098;2022-08-16T07:03:44;22.77;;;16.33;;
63259;SDS011;49390;51.380;0.098;2022-08-16T07:06:25;23.65;;;16.73;;
63259;SDS011;49390;51.380;0.098;2022-08-16T07:08:58;23.58;;;16.23;;
63259;SDS011;49390;51.380;0.098;2022-08-16T07:11:31;26.80;;;17.35;;
63259;SDS011;49390;51.380;0.098;2022-08-16T07:14:19;22.48;;;16.55;;
63259;SDS011;49390;51.380;0.098;2022-08-16T07:16:55;22.17;;;16.15;;
63259;SDS011;49390;51.380;0.098;2022-08-16T07:19:27;25.08;;;17.00;;
63259;SDS011;49390;51.380;0.098;2022-08-16T07:22:21;21.63;;;15.88;;
63259;SDS011;49390;51.380;0.098;2022-08-16T07:25:13;20.17;;;15.02;;
63259;SDS011;49390;51.380;0.098;2022-08-16T07:27:44;20.55;;;14.52;;
63259;SDS011;49390;51.380;0.098;2022-08-16T07:30:17;24.77;;;15.60;;
63259;SDS011;49390;51.380;0.098;2022-08-16T07:33:11;19.88;;;14.65;;
63259;SDS011;49390;51.380;0.098;2022-08-16T07:35:42;20.25;;;15.15;;
63259;SDS011;49390;51.380;0.098;2022-08-16T07:38:18;21.90;;;14.43;;
63259;SDS011;49390;51.380;0.098;2022-08-16T07:41:02;19.98;;;14.63;;
63259;SDS011;49390;51.380;0.098;2022-08-16T07:43:38;21.55;;;14.93;;
63259;SDS011;49390;51.380;0.098;2022-08-16T07:46:10;20.98;;;14.07;;
63259;SDS011;49390;51.380;0.098;2022-08-16T07:49:03;19.45;;;14.05;;
63259;SDS011;49390;51.380;0.098;2022-08-16T07:51:40;19.20;;;14.32;;
63259;SDS011;49390;51.380;0.098;2022-08-16T07:54:10;19.25;;;14.35;;
63259;SDS011;49390;51.380;0.098;2022-08-16T07:56:53;20.35;;;14.27;;
63259;SDS011;49390;51.380;0.098;2022-08-16T07:59:24;21.63;;;14.68;;
63259;SDS011;49390;51.380;0.098;2022-08-16T08:02:10;15.00;;;13.05;;
63259;SDS011;49390;51.380;0.098;2022-08-16T08:04:48;20.67;;;13.95;;
63259;SDS011;49390;51.380;0.098;2022-08-16T08:07:17;18.70;;;13.50;;
63259;SDS011;49390;51.380;0.098;2022-08-16T08:09:48;20.45;;;13.82;;
63259;SDS011;49390;51.380;0.098;2022-08-16T08:12:17;17.45;;;13.05;;
63259;SDS011;49390;51.380;0.098;2022-08-16T08:15:05;18.80;;;13.63;;
63259;SDS011;49390;51.380;0.098;2022-08-16T08:17:39;18.95;;;13.30;;
63259;SDS011;49390;51.380;0.098;2022-08-16T08:20:14;20.83;;;14.05;;
63259;SDS011;49390;51.380;0.098;2022-08-16T08:22:56;16.70;;;12.80;;
63259;SDS011;49390;51.380;0.098;2022-08-16T08:25:33;17.60;;;13.80;;
63259;SDS011;49390;51.380;0.098;2022-08-16T08:28:21;16.30;;;13.43;;
63259;SDS011;49390;51.380;0.098;2022-08-16T08:31:00;18.70;;;13.35;;
63259;SDS011;49390;51.380;0.098;2022-08-16T08:33:34;18.92;;;13.63;;
63259;SDS011;49390;51.380;0.098;2022-08-16T08:36:05;17.65;;;13.02;;
63259;SDS011;49390;51.380;0.098;2022-08-16T08:38:36;19.17;;;13.52;;
63259;SDS011;49390;51.380;0.098;2022-08-16T08:41:12;19.52;;;14.15;;
63259;SDS011;49390;51.380;0.098;2022-08-16T08:43:48;20.45;;;13.38;;
63259;SDS011;49390;51.380;0.098;2022-08-16T08:46:19;20.33;;;14.07;;
63259;SDS011;49390;51.380;0.098;2022-08-16T08:48:51;20.30;;;14.07;;
63259;SDS011;49390;51.380;0.098;2022-08-16T08:51:29;17.67;;;14.10;;
63259;SDS011;49390;51.380;0.098;2022-08-16T08:54:06;18.70;;;14.35;;
63259;SDS011;49390;51.380;0.098;2022-08-16T08:56:39;20.33;;;13.07;;
63259;SDS011;49390;51.380;0.098;2022-08-16T08:59:32;17.58;;;13.38;;
63259;SDS011;49390;51.380;0.098;2022-08-16T09:02:09;19.35;;;12.68;;
63259;SDS011;49390;51.380;0.098;2022-08-16T09:04:43;16.98;;;12.60;;
63259;SDS011;49390;51.380;0.098;2022-08-16T09:07:18;20.05;;;13.60;;
63259;SDS011;49390;51.380;0.098;2022-08-16T09:09:53;19.90;;;13.85;;
63259;SDS011;49390;51.380;0.098;2022-08-16T09:12:35;23.63;;;14.15;;
63259;SDS011;49390;51.380;0.098;2022-08-16T09:15:10;19.42;;;13.48;;
63259;SDS011;49390;51.380;0.098;2022-08-16T09:17:43;19.85;;;13.50;;
63259;SDS011;49390;51.380;0.098;2022-08-16T09:20:24;17.20;;;12.43;;
63259;SDS011;49390;51.380;0.098;2022-08-16T09:22:54;17.60;;;12.23;;
63259;SDS011;49390;51.380;0.098;2022-08-16T09:25:29;16.63;;;11.80;;
63259;SDS011;49390;51.380;0.098;2022-08-16T09:28:04;15.77;;;11.52;;
63259;SDS011;49390;51.380;0.098;2022-08-16T09:30:39;19.13;;;11.80;;
63259;SDS011;49390;51.380;0.098;2022-08-16T09:33:13;18.98;;;12.90;;
63259;SDS011;49390;51.380;0.098;2022-08-16T09:35:47;18.98;;;13.13;;
63259;SDS011;49390;51.380;0.098;2022-08-16T09:38:21;16.70;;;12.63;;
63259;SDS011;49390;51.380;0.098;2022-08-16T09:40:59;21.13;;;13.35;;
63259;SDS011;49390;51.380;0.098;2022-08-16T09:43:31;19.30;;;13.95;;
63259;SDS011;49390;51.380;0.098;2022-08-16T09:46:20;21.27;;;13.57;;
63259;SDS011;49390;51.380;0.098;2022-08-16T09:49:10;20.63;;;14.38;;
63259;SDS011;49390;51.380;0.098;2022-08-16T09:51:38;19.30;;;13.55;;
63259;SDS011;49390;51.380;0.098;2022-08-16T09:54:07;22.65;;;12.73;;
63259;SDS011;49390;51.380;0.098;2022-08-16T09:56:43;19.35;;;13.63;;
63259;SDS011;49390;51.380;0.098;2022-08-16T09:59:21;19.95;;;13.80;;
63259;SDS011;49390;51.380;0.098;2022-08-16T10:01:57;20.10;;;14.60;;
63259;SDS011;49390;51.380;0.098;2022-08-16T10:04:25;19.63;;;14.65;;
63259;SDS011;49390;51.380;0.098;2022-08-16T10:07:03;20.90;;;13.95;;
63259;SDS011;49390;51.380;0.098;2022-08-16T10:09:43;21.25;;;13.35;;
63259;SDS011;49390;51.380;0.098;2022-08-16T10:12:25;20.95;;;13.90;;
63259;SDS011;49390;51.380;0.098;2022-08-16T10:15:22;19.10;;;13.45;;
63259;SDS011;49390;51.380;0.098;2022-08-16T10:17:57;20.67;;;14.32;;
63259;SDS011;49390;51.380;0.098;2022-08-16T10:20:45;19.60;;;13.85;;
63259;SDS011;49390;51.380;0.098;2022-08-16T10:23:16;21.73;;;14.93;;
63259;SDS011;49390;51.380;0.098;2022-08-16T10:25:46;23.00;;;15.35;;
63259;SDS011;49390;51.380;0.098;2022-08-16T10:28:35;18.48;;;13.10;;
63259;SDS011;49390;51.380;0.098;2022-08-16T10:31:08;22.42;;;13.70;;
63259;SDS011;49390;51.380;0.098;2022-08-16T10:33:43;22.75;;;15.13;;
63259;SDS011;49390;51.380;0.098;2022-08-16T10:36:12;22.75;;;14.63;;
63259;SDS011;49390;51.380;0.098;2022-08-16T10:39:02;23.30;;;14.25;;
63259;SDS011;49390;51.380;0.098;2022-08-16T10:41:34;17.55;;;12.68;;
63259;SDS011;49390;51.380;0.098;2022-08-16T10:44:03;17.27;;;12.05;;
63259;SDS011;49390;51.380;0.098;2022-08-16T10:46:36;19.08;;;13.25;;
63259;SDS011;49390;51.380;0.098;2022-08-16T10:51:27;19.25;;;11.63;;
63259;SDS011;49390;51.380;0.098;2022-08-16T10:54:15;17.90;;;11.25;;
63259;SDS011;49390;51.380;0.098;2022-08-16T10:57:00;17.15;;;11.80;;
63259;SDS011;49390;51.380;0.098;2022-08-16T10:59:31;16.13;;;9.38;;
63259;SDS011;49390;51.380;0.098;2022-08-16T11:02:19;16.02;;;10.10;;
63259;SDS011;49390;51.380;0.098;2022-08-16T11:05:10;13.30;;;9.20;;
63259;SDS011;49390;51.380;0.098;2022-08-16T11:07:42;14.82;;;10.50;;
63259;SDS011;49390;51.380;0.098;2022-08-16T11:10:33;16.63;;;10.35;;
63259;SDS011;49390;51.380;0.098;2022-08-16T11:13:23;16.23;;;10.57;;
63259;SDS011;49390;51.380;0.098;2022-08-16T11:16:13;15.50;;;11.05;;
63259;SDS011;49390;51.380;0.098;2022-08-16T11:19:02;16.00;;;10.65;;
63259;SDS011;49390;51.380;0.098;2022-08-16T11:21:40;14.88;;;9.75;;
63259;SDS011;49390;51.380;0.098;2022-08-16T11:24:29;15.88;;;10.40;;
63259;SDS011;49390;51.380;0.098;2022-08-16T11:27:07;14.27;;;9.20;;
63259;SDS011;49390;51.380;0.098;2022-08-16T11:29:53;15.73;;;9.00;;
63259;SDS011;49390;51.380;0.098;2022-08-16T11:32:24;14.73;;;8.63;;
63259;SDS011;49390;51.380;0.098;2022-08-16T11:35:02;14.02;;;9.10;;
63259;SDS011;49390;51.380;0.098;2022-08-16T11:37:43;13.98;;;9.13;;
63259;SDS011;49390;51.380;0.098;2022-08-16T11:43:20;10.30;;;6.80;;
63259;SDS011;49390;51.380;0.098;2022-08-16T11:46:03;9.23;;;5.82;;
63259;SDS011;49390;51.380;0.098;2022-08-16T11:48:54;8.05;;;5.53;;
63259;SDS011;49390;51.380;0.098;2022-08-16T11:51:22;6.22;;;4.22;;
63259;SDS011;49390;51.380;0.098;2022-08-16T11:53:50;9.57;;;4.93;;
63259;SDS011;49390;51.380;0.098;2022-08-16T11:56:19;7.38;;;4.40;;
63259;SDS011;49390;51.380;0.098;2022-08-16T11:59:07;7.32;;;4.10;;
63259;SDS011;49390;51.380;0.098;2022-08-16T12:01:39;7.53;;;4.30;;
63259;SDS011;49390;51.380;0.098;2022-08-16T12:04:25;7.05;;;3.67;;
63259;SDS011;49390;51.380;0.098;2022-08-16T12:06:54;8.23;;;4.55;;
63259;SDS011;49390;51.380;0.098;2022-08-16T12:09:24;7.22;;;4.40;;
63259;SDS011;49390;51.380;0.098;2022-08-16T12:11:57;7.55;;;4.63;;
63259;SDS011;49390;51.380;0.098;2022-08-16T12:14:30;6.78;;;4.03;;
63259;SDS011;49390;51.380;0.098;2022-08-16T12:17:05;6.22;;;4.03;;
63259;SDS011;49390;51.380;0.098;2022-08-16T12:19:36;5.47;;;3.90;;
63259;SDS011;49390;51.380;0.098;2022-08-16T12:22:05;6.63;;;3.70;;
63259;SDS011;49390;51.380;0.098;2022-08-16T12:24:50;5.15;;;3.55;;
63259;SDS011;49390;51.380;0.098;2022-08-16T12:27:20;6.20;;;4.30;;
63259;SDS011;49390;51.380;0.098;2022-08-16T12:29:53;6.38;;;3.70;;
63259;SDS011;49390;51.380;0.098;2022-08-16T12:32:26;5.80;;;3.67;;
63259;SDS011;49390;51.380;0.098;2022-08-16T12:35:09;6.45;;;3.97;;
63259;SDS011;49390;51.380;0.098;2022-08-16T12:37:40;7.05;;;4.13;;
63259;SDS011;49390;51.380;0.098;2022-08-16T12:40:16;7.30;;;4.65;;
63259;SDS011;49390;51.380;0.098;2022-08-16T12:42:52;6.93;;;4.70;;
63259;SDS011;49390;51.380;0.098;2022-08-16T12:45:26;6.57;;;4.68;;
63259;SDS011;49390;51.380;0.098;2022-08-16T12:47:57;8.45;;;5.20;;
63259;SDS011;49390;51.380;0.098;2022-08-16T12:51:06;7.85;;;4.47;;
63259;SDS011;49390;51.380;0.098;2022-08-16T12:53:49;8.57;;;4.78;;
63259;SDS011;49390;51.380;0.098;2022-08-16T12:56:20;5.90;;;4.10;;
63259;SDS011;49390;51.380;0.098;2022-08-16T12:58:55;8.27;;;4.68;;
63259;SDS011;49390;51.380;0.098;2022-08-16T13:01:27;6.93;;;3.65;;
63259;SDS011;49390;51.380;0.098;2022-08-16T13:03:59;6.43;;;3.75;;
63259;SDS011;49390;51.380;0.098;2022-08-16T13:06:47;6.88;;;3.90;;
63259;SDS011;49390;51.380;0.098;2022-08-16T13:09:20;7.53;;;3.80;;
63259;SDS011;49390;51.380;0.098;2022-08-16T13:11:59;5.97;;;3.60;;
63259;SDS011;49390;51.380;0.098;2022-08-16T13:14:35;6.50;;;4.15;;
63259;SDS011;49390;51.380;0.098;2022-08-16T13:17:09;5.22;;;3.30;;
63259;SDS011;49390;51.380;0.098;2022-08-16T13:19:53;6.15;;;3.38;;
63259;SDS011;49390;51.380;0.098;2022-08-16T13:22:39;5.03;;;2.90;;
63259;SDS011;49390;51.380;0.098;2022-08-16T13:25:21;5.28;;;3.15;;
63259;SDS011;49390;51.380;0.098;2022-08-16T13:27:52;4.50;;;3.03;;
63259;SDS011;49390;51.380;0.098;2022-08-16T13:30:32;4.63;;;2.90;;
63259;SDS011;49390;51.380;0.098;2022-08-16T13:33:10;4.82;;;3.15;;
63259;SDS011;49390;51.380;0.098;2022-08-16T13:35:55;5.20;;;3.30;;
63259;SDS011;49390;51.380;0.098;2022-08-16T13:38:29;5.65;;;3.85;;
63259;SDS011;49390;51.380;0.098;2022-08-16T13:41:05;6.25;;;3.97;;
63259;SDS011;49390;51.380;0.098;2022-08-16T13:43:36;10.32;;;4.70;;
63259;SDS011;49390;51.380;0.098;2022-08-16T13:46:06;8.00;;;4.35;;
63259;SDS011;49390;51.380;0.098;2022-08-16T13:48:35;6.97;;;4.40;;
63259;SDS011;49390;51.380;0.098;2022-08-16T13:51:13;5.07;;;3.50;;
63259;SDS011;49390;51.380;0.098;2022-08-16T13:53:47;5.70;;;3.40;;
63259;SDS011;49390;51.380;0.098;2022-08-16T13:56:27;5.50;;;3.40;;
63259;SDS011;49390;51.380;0.098;2022-08-16T13:59:07;7.50;;;4.13;;
63259;SDS011;49390;51.380;0.098;2022-08-16T14:04:23;5.85;;;3.67;;
63259;SDS011;49390;51.380;0.098;2022-08-16T14:06:55;4.82;;;3.03;;
63259;SDS011;49390;51.380;0.098;2022-08-16T14:09:27;4.90;;;3.10;;
63259;SDS011;49390;51.380;0.098;2022-08-16T14:11:58;5.22;;;3.10;;
63259;SDS011;49390;51.380;0.098;2022-08-16T14:14:30;6.15;;;3.17;;
63259;SDS011;49390;51.380;0.098;2022-08-16T14:17:02;5.13;;;3.20;;
63259;SDS011;49390;51.380;0.098;2022-08-16T14:19:36;5.95;;;3.05;;
63259;SDS011;49390;51.380;0.098;2022-08-16T14:22:15;4.47;;;2.95;;
63259;SDS011;49390;51.380;0.098;2022-08-16T14:25:07;5.55;;;3.25;;
63259;SDS011;49390;51.380;0.098;2022-08-16T14:27:45;4.55;;;3.00;;
63259;SDS011;49390;51.380;0.098;2022-08-16T14:30:18;5.22;;;3.15;;
63259;SDS011;49390;51.380;0.098;2022-08-16T14:32:46;6.55;;;4.00;;
63259;SDS011;49390;51.380;0.098;2022-08-16T14:35:19;7.05;;;3.80;;
63259;SDS011;49390;51.380;0.098;2022-08-16T14:38:10;11.15;;;5.00;;
63259;SDS011;49390;51.380;0.098;2022-08-16T14:40:45;11.52;;;5.70;;
63259;SDS011;49390;51.380;0.098;2022-08-16T14:43:22;8.02;;;4.90;;
63259;SDS011;49390;51.380;0.098;2022-08-16T14:45:51;8.18;;;4.97;;
63259;SDS011;49390;51.380;0.098;2022-08-16T14:48:22;12.95;;;6.35;;
63259;SDS011;49390;51.380;0.098;2022-08-16T14:50:53;7.65;;;5.13;;
63259;SDS011;49390;51.380;0.098;2022-08-16T14:53:22;9.27;;;5.40;;
63259;SDS011;49390;51.380;0.098;2022-08-16T14:55:53;8.25;;;4.93;;
63259;SDS011;49390;51.380;0.098;2022-08-16T14:58:22;8.10;;;5.55;;
63259;SDS011;49390;51.380;0.098;2022-08-16T15:03:32;9.52;;;6.03;;
63259;SDS011;49390;51.380;0.098;2022-08-16T15:06:04;6.85;;;5.18;;
63259;SDS011;49390;51.380;0.098;2022-08-16T15:08:33;10.02;;;5.15;;
63259;SDS011;49390;51.380;0.098;2022-08-16T15:11:07;8.77;;;5.10;;
63259;SDS011;49390;51.380;0.098;2022-08-16T15:13:35;8.77;;;5.30;;
63259;SDS011;49390;51.380;0.098;2022-08-16T15:16:04;6.43;;;4.97;;
63259;SDS011;49390;51.380;0.098;2022-08-16T15:18:32;8.68;;;5.60;;
63259;SDS011;49390;51.380;0.098;2022-08-16T15:21:01;9.18;;;6.25;;
63259;SDS011;49390;51.380;0.098;2022-08-16T15:23:31;9.68;;;5.70;;
63259;SDS011;49390;51.380;0.098;2022-08-16T15:26:01;9.35;;;6.03;;
63259;SDS011;49390;51.380;0.098;2022-08-16T15:28:34;8.57;;;6.30;;
63259;SDS011;49390;51.380;0.098;2022-08-16T15:31:05;8.02;;;5.53;;
63259;SDS011;49390;51.380;0.098;2022-08-16T15:33:41;12.43;;;6.22;;
63259;SDS011;49390;51.380;0.098;2022-08-16T15:36:22;8.60;;;6.13;;
63259;SDS011;49390;51.380;0.098;2022-08-16T15:38:53;9.13;;;6.20;;
63259;SDS011;49390;51.380;0.098;2022-08-16T15:44:15;9.82;;;6.47;;
63259;SDS011;49390;51.380;0.098;2022-08-16T15:46:52;9.00;;;6.40;;
63259;SDS011;49390;51.380;0.098;2022-08-16T15:49:29;10.90;;;6.10;;
63259;SDS011;49390;51.380;0.098;2022-08-16T15:52:31;10.23;;;6.47;;
63259;SDS011;49390;51.380;0.098;2022-08-16T15:55:04;9.43;;;6.68;;